Time;durP1;ratioP1;P1;durP2;ratioP2;P2;SDS_P1;SDS_P2;PMS_P1;PMS_P2;Temp;Humidity;BMP_temperature;BMP_pressure;BME280_temperature;BME280_humidity;BME280_pressure;Samples;Min_cycle;Max_cycle;Signal;HPM_P1;HPM_P2
2022/08/24 00:01:05;;;;;;;38.50;34.40;;;17.70;99.90;;;;;;5066972;28;20032;-50
2022/08/24 00:03:31;;;;;;;36.58;32.92;;;17.60;99.90;;;;;;5062258;28;20046;-52
2022/08/24 00:05:57;;;;;;;34.55;31.05;;;17.30;99.90;;;;;;5061605;28;20865;-53
2022/08/24 00:08:24;;;;;;;34.80;31.35;;;17.30;99.90;;;;;;5061272;28;20036;-50
2022/08/24 00:10:49;;;;;;;34.60;31.20;;;17.20;99.90;;;;;;5064066;28;20052;-54
2022/08/24 00:13:15;;;;;;;36.80;33.25;;;18.60;99.90;;;;;;5060269;28;20098;-54
2022/08/24 00:15:41;;;;;;;34.70;30.85;;;17.10;99.90;;;;;;5060946;28;20072;-54
2022/08/24 00:18:08;;;;;;;32.33;28.92;;;17.10;99.90;;;;;;5064381;28;20084;-51
2022/08/24 00:20:34;;;;;;;28.30;25.50;;;17.00;99.90;;;;;;5065667;28;20040;-53
2022/08/24 00:22:59;;;;;;;25.70;23.20;;;16.80;99.90;;;;;;5019907;28;20067;-55
2022/08/24 00:25:25;;;;;;;23.42;21.20;;;16.80;99.90;;;;;;5063504;28;20500;-53
2022/08/24 00:27:51;;;;;;;24.05;21.65;;;16.80;99.90;;;;;;5063179;28;20568;-50
2022/08/24 00:30:19;;;;;;;24.30;21.95;;;16.60;99.90;;;;;;5046535;28;20048;-53
2022/08/24 00:32:47;;;;;;;25.05;22.63;;;16.60;99.90;;;;;;5066951;28;20044;-49
2022/08/24 00:35:14;;;;;;;21.55;19.58;;;16.70;99.90;;;;;;5062367;28;20055;-52
2022/08/24 00:37:40;;;;;;;43.75;28.67;;;16.50;99.90;;;;;;5062144;28;20134;-52
2022/08/24 00:40:12;;;;;;;24.08;21.58;;;16.60;99.90;;;;;;5062867;28;20291;-53
2022/08/24 00:42:39;;;;;;;19.10;17.25;;;16.60;99.90;;;;;;5059854;28;20035;-53
2022/08/24 00:45:07;;;;;;;19.23;17.42;;;17.30;99.90;;;;;;5062146;28;20044;-52
2022/08/24 00:47:51;;;;;;;19.90;18.02;;;16.50;99.90;;;;;;5065693;28;20105;-49
2022/08/24 00:50:22;;;;;;;22.77;20.58;;;16.40;99.90;;;;;;5062795;28;20054;-55
2022/08/24 00:52:55;;;;;;;24.63;22.10;;;16.50;99.90;;;;;;5066111;28;20622;-52
2022/08/24 00:55:36;;;;;;;147.57;32.63;;;16.30;99.90;;;;;;5057841;28;20056;-51
2022/08/24 00:58:09;;;;;;;30.25;27.05;;;16.30;99.90;;;;;;5062951;28;20051;-50
2022/08/24 01:00:40;;;;;;;25.50;22.75;;;16.40;99.90;;;;;;5063683;28;20099;-51
2022/08/24 01:03:07;;;;;;;21.75;19.45;;;16.30;99.90;;;;;;5065414;28;20115;-50
2022/08/24 01:05:35;;;;;;;24.05;21.30;;;16.40;99.90;;;;;;5061469;28;20113;-51
2022/08/24 01:08:03;;;;;;;25.73;23.20;;;16.30;99.90;;;;;;5063153;28;20040;-51
2022/08/24 01:10:34;;;;;;;21.65;19.55;;;16.30;99.90;;;;;;5069092;28;20078;-49
2022/08/24 01:13:04;;;;;;;23.93;21.30;;;16.00;99.90;;;;;;5046411;28;20098;-54
2022/08/24 01:15:34;;;;;;;20.52;18.63;;;16.20;99.90;;;;;;5069422;28;20695;-54
2022/08/24 01:20:50;;;;;;;18.60;16.90;;;16.20;99.90;;;;;;5070557;28;20115;-51
2022/08/24 01:23:33;;;;;;;22.43;20.23;;;16.20;99.90;;;;;;5066218;28;20041;-54
2022/08/24 01:25:59;;;;;;;28.80;24.73;;;16.00;99.90;;;;;;5049762;28;20784;-49
2022/08/24 01:28:26;;;;;;;29.48;26.58;;;16.10;99.90;;;;;;5039231;28;20047;-51
2022/08/24 01:30:51;;;;;;;29.40;26.35;;;16.10;99.90;;;;;;5069502;28;20500;-52
2022/08/24 01:33:24;;;;;;;22.73;20.40;;;16.00;99.90;;;;;;5072175;28;20039;-50
2022/08/24 01:35:57;;;;;;;21.90;19.90;;;16.00;99.90;;;;;;5066419;28;20040;-52
2022/08/24 01:38:23;;;;;;;20.95;19.10;;;16.20;99.90;;;;;;5065352;28;20779;-50
2022/08/24 01:40:56;;;;;;;21.15;19.25;;;16.00;99.90;;;;;;5067444;28;20040;-51
2022/08/24 01:43:23;;;;;;;21.02;18.92;;;16.00;99.90;;;;;;5067328;28;20048;-51
2022/08/24 01:45:49;;;;;;;23.27;21.13;;;16.30;99.90;;;;;;5064878;28;20047;-50
2022/08/24 01:48:15;;;;;;;21.90;19.73;;;15.80;99.90;;;;;;5066035;28;20044;-52
2022/08/24 01:50:41;;;;;;;21.35;19.30;;;16.00;99.90;;;;;;5062492;28;20064;-50
2022/08/24 01:53:07;;;;;;;21.40;19.23;;;16.00;99.90;;;;;;5068464;28;20405;-51
2022/08/24 01:55:34;;;;;;;22.10;20.00;;;15.80;99.90;;;;;;5070884;28;20047;-52
2022/08/24 01:58:00;;;;;;;24.63;22.23;;;15.90;99.90;;;;;;5067103;28;20741;-49
2022/08/24 02:00:26;;;;;;;24.38;21.88;;;15.90;99.90;;;;;;5052496;28;20044;-50
2022/08/24 02:02:52;;;;;;;23.92;21.63;;;18.00;99.90;;;;;;5069834;28;20051;-51
2022/08/24 02:05:18;;;;;;;19.08;17.17;;;15.90;99.90;;;;;;5067151;28;20033;-50
2022/08/24 02:07:44;;;;;;;19.77;17.88;;;15.80;99.90;;;;;;5066937;28;20432;-53
2022/08/24 02:10:13;;;;;;;18.80;17.10;;;17.30;99.90;;;;;;5063997;28;20036;-51
2022/08/24 02:12:42;;;;;;;17.10;15.63;;;15.80;99.90;;;;;;5064100;28;20032;-50
2022/08/24 02:15:09;;;;;;;18.45;16.95;;;15.90;99.90;;;;;;5067421;28;20048;-51
2022/08/24 02:17:35;;;;;;;16.38;15.07;;;15.70;99.90;;;;;;5067059;28;20046;-52
2022/08/24 02:20:03;;;;;;;17.38;15.88;;;15.90;99.90;;;;;;5068142;28;21115;-51
2022/08/24 02:22:29;;;;;;;17.20;15.80;;;15.70;99.90;;;;;;5065359;28;20671;-53
2022/08/24 02:24:55;;;;;;;17.17;15.57;;;15.70;99.90;;;;;;5067228;28;20040;-54
2022/08/24 02:27:21;;;;;;;18.25;16.73;;;15.60;99.90;;;;;;5065536;28;20263;-50
2022/08/24 02:29:46;;;;;;;16.27;14.77;;;15.70;99.90;;;;;;5068398;28;20036;-52
2022/08/24 02:32:12;;;;;;;19.42;17.73;;;15.60;99.90;;;;;;5069320;28;20036;-54
2022/08/24 02:34:38;;;;;;;23.52;21.38;;;15.70;99.90;;;;;;5066565;28;20327;-51
2022/08/24 02:37:04;;;;;;;22.85;20.70;;;15.70;99.90;;;;;;5067599;28;20114;-53
2022/08/24 02:39:31;;;;;;;21.33;19.52;;;15.70;99.90;;;;;;5063007;28;20215;-53
2022/08/24 02:41:57;;;;;;;23.35;21.35;;;15.40;99.90;;;;;;5064810;28;20044;-54
2022/08/24 02:44:23;;;;;;;20.33;18.55;;;15.60;99.90;;;;;;5061443;28;20059;-52
2022/08/24 02:46:48;;;;;;;16.60;15.30;;;15.50;99.90;;;;;;5068465;28;20043;-53
2022/08/24 02:49:14;;;;;;;17.48;15.73;;;15.70;99.90;;;;;;5064736;28;21089;-53
2022/08/24 02:51:43;;;;;;;18.17;16.48;;;15.40;99.90;;;;;;5066761;28;20364;-49
2022/08/24 02:54:09;;;;;;;15.32;14.00;;;15.30;99.90;;;;;;5067850;28;20044;-48
2022/08/24 02:56:34;;;;;;;15.57;14.18;;;15.40;99.90;;;;;;5064115;28;20051;-51
2022/08/24 02:59:01;;;;;;;17.45;15.95;;;15.50;99.90;;;;;;5066542;28;20134;-49
2022/08/24 03:01:27;;;;;;;25.92;22.50;;;15.30;99.90;;;;;;5064258;28;20062;-50
2022/08/24 03:03:55;;;;;;;18.02;16.23;;;15.20;99.90;;;;;;5062536;28;20954;-50
2022/08/24 03:06:21;;;;;;;18.25;16.52;;;15.30;99.90;;;;;;5063954;28;20098;-50
2022/08/24 03:08:47;;;;;;;18.60;16.48;;;15.20;99.90;;;;;;5068059;28;20079;-50
2022/08/24 03:11:13;;;;;;;16.95;15.43;;;15.30;99.90;;;;;;5065956;28;20044;-51
2022/08/24 03:13:39;;;;;;;16.02;14.63;;;15.20;99.90;;;;;;5065021;28;20093;-49
2022/08/24 03:16:06;;;;;;;16.15;14.73;;;15.30;99.90;;;;;;5065459;28;20067;-52
2022/08/24 03:18:32;;;;;;;17.60;16.10;;;15.20;99.90;;;;;;5062846;28;20042;-51
2022/08/24 03:21:01;;;;;;;15.30;13.88;;;17.50;99.90;;;;;;5065347;28;20083;-50
2022/08/24 03:23:27;;;;;;;15.82;14.23;;;15.20;99.90;;;;;;5069061;28;20516;-51
2022/08/24 03:25:53;;;;;;;14.57;13.20;;;14.90;99.90;;;;;;5063638;28;20093;-51
2022/08/24 03:28:22;;;;;;;13.80;12.50;;;15.20;99.90;;;;;;5068289;28;20042;-53
2022/08/24 03:30:48;;;;;;;15.20;13.80;;;15.20;99.90;;;;;;5065946;28;20052;-50
2022/08/24 03:33:15;;;;;;;12.55;11.43;;;15.20;99.90;;;;;;5067463;28;20059;-52
2022/08/24 03:35:40;;;;;;;13.32;12.13;;;15.10;99.90;;;;;;5064902;28;20055;-49
2022/08/24 03:38:06;;;;;;;17.60;16.00;;;15.20;99.90;;;;;;5065850;28;20033;-49
2022/08/24 03:40:33;;;;;;;18.05;16.45;;;15.00;99.90;;;;;;5063658;28;20503;-51
2022/08/24 03:43:00;;;;;;;22.75;20.55;;;15.20;99.90;;;;;;5063450;28;20526;-53
2022/08/24 03:45:26;;;;;;;18.17;16.17;;;15.10;99.90;;;;;;5063232;28;20083;-49
2022/08/24 03:47:52;;;;;;;19.17;16.73;;;15.10;99.90;;;;;;5063814;28;20246;-50
2022/08/24 03:50:19;;;;;;;20.58;18.58;;;15.10;99.90;;;;;;5063482;28;21093;-49
2022/08/24 03:52:46;;;;;;;23.27;21.00;;;15.00;99.90;;;;;;5065480;28;20066;-51
2022/08/24 03:55:12;;;;;;;19.95;17.60;;;15.10;99.90;;;;;;5069640;28;20131;-49
2022/08/24 03:57:38;;;;;;;19.63;17.80;;;15.10;99.90;;;;;;5063924;28;20052;-51
2022/08/24 04:00:08;;;;;;;18.70;16.90;;;15.20;99.90;;;;;;5048374;28;20043;-49
2022/08/24 04:02:34;;;;;;;22.92;20.63;;;15.20;99.90;;;;;;5069733;28;20048;-49
2022/08/24 04:04:59;;;;;;;21.98;19.35;;;15.10;99.90;;;;;;5063904;28;20094;-49
2022/08/24 04:07:25;;;;;;;22.25;19.13;;;15.10;99.90;;;;;;5066582;28;20085;-52
2022/08/24 04:09:51;;;;;;;23.55;21.13;;;15.20;99.90;;;;;;5069735;28;20032;-48
2022/08/24 04:12:16;;;;;;;26.15;23.52;;;15.10;99.90;;;;;;5066680;28;21033;-48
2022/08/24 04:14:43;;;;;;;34.10;28.33;;;15.10;99.90;;;;;;5065587;28;21008;-52
2022/08/24 04:17:10;;;;;;;31.83;26.73;;;17.00;99.90;;;;;;5060690;28;20051;-52
2022/08/24 04:19:36;;;;;;;30.45;27.20;;;15.20;99.90;;;;;;5062906;28;20032;-48
2022/08/24 04:22:02;;;;;;;27.63;23.15;;;15.30;99.90;;;;;;5049612;28;22320;-49
2022/08/24 04:24:28;;;;;;;25.17;22.52;;;15.30;99.90;;;;;;5063318;28;20059;-51
2022/08/24 04:26:54;;;;;;;20.08;18.27;;;15.20;99.90;;;;;;5063716;28;20089;-49
2022/08/24 04:29:20;;;;;;;21.17;18.88;;;15.40;99.90;;;;;;5065779;28;20055;-53
2022/08/24 04:31:46;;;;;;;20.40;18.30;;;15.40;99.90;;;;;;5066527;28;20063;-51
2022/08/24 04:34:14;;;;;;;20.77;18.85;;;15.20;99.90;;;;;;5066808;28;20044;-50
2022/08/24 04:36:41;;;;;;;21.63;19.35;;;15.20;99.90;;;;;;5067019;28;20044;-48
2022/08/24 04:39:07;;;;;;;22.23;20.17;;;15.80;99.90;;;;;;5049396;28;20041;-52
2022/08/24 04:41:33;;;;;;;25.83;23.52;;;15.20;99.90;;;;;;5069537;28;20488;-49
2022/08/24 04:44:02;;;;;;;26.05;23.65;;;15.40;99.90;;;;;;5066718;28;20048;-48
2022/08/24 04:46:28;;;;;;;28.25;25.35;;;15.20;99.90;;;;;;5068652;28;20048;-50
2022/08/24 04:48:54;;;;;;;28.55;25.50;;;15.60;99.90;;;;;;5066388;28;20040;-49
2022/08/24 04:51:20;;;;;;;26.38;23.38;;;15.20;99.90;;;;;;5067859;28;20063;-49
2022/08/24 04:53:47;;;;;;;25.77;23.08;;;15.30;99.90;;;;;;5065449;28;20488;-53
2022/08/24 04:56:22;;;;;;;27.80;24.35;;;15.40;99.90;;;;;;5066134;28;20036;-50
2022/08/24 04:58:49;;;;;;;29.35;26.25;;;15.30;99.90;;;;;;5064040;28;20040;-49
2022/08/24 05:01:19;;;;;;;22.35;20.13;;;15.50;99.90;;;;;;5070042;28;20095;-49
2022/08/24 05:03:47;;;;;;;27.42;24.52;;;16.20;99.90;;;;;;5067349;28;20120;-49
2022/08/24 05:06:14;;;;;;;23.30;20.92;;;15.40;99.90;;;;;;5066415;28;20032;-52
2022/08/24 05:08:40;;;;;;;28.33;21.85;;;15.50;99.90;;;;;;5045284;28;20705;-50
2022/08/24 05:11:07;;;;;;;25.92;23.42;;;15.50;99.90;;;;;;5069910;28;20054;-49
2022/08/24 05:13:36;;;;;;;24.17;21.65;;;15.50;99.90;;;;;;5063020;28;20041;-52
2022/08/24 05:16:09;;;;;;;22.23;20.00;;;15.60;99.90;;;;;;5041079;28;20118;-50
2022/08/24 05:18:35;;;;;;;29.88;26.73;;;15.50;99.90;;;;;;5071326;28;20052;-50
2022/08/24 05:21:01;;;;;;;26.00;23.60;;;15.80;99.90;;;;;;5066862;28;20314;-49
2022/08/24 05:23:28;;;;;;;38.58;34.53;;;15.70;99.90;;;;;;5068265;28;20040;-50
2022/08/24 05:26:10;;;;;;;37.05;33.33;;;15.80;99.90;;;;;;5066823;28;20155;-52
2022/08/24 05:28:37;;;;;;;41.13;36.67;;;16.00;99.90;;;;;;5066615;28;20497;-48
2022/08/24 05:31:12;;;;;;;41.92;37.55;;;16.00;99.90;;;;;;5062577;28;20052;-55
2022/08/24 05:33:38;;;;;;;43.25;38.65;;;16.10;99.90;;;;;;5046477;28;20040;-56
2022/08/24 05:36:13;;;;;;;42.83;38.38;;;16.40;99.90;;;;;;5063760;28;20532;-55
2022/08/24 05:38:39;;;;;;;39.40;35.50;;;16.40;99.90;;;;;;5066919;28;20086;-55
2022/08/24 05:41:05;;;;;;;40.50;36.13;;;18.50;99.90;;;;;;5067148;28;20037;-55
2022/08/24 05:43:30;;;;;;;41.50;36.45;;;16.50;99.90;;;;;;5068898;28;20056;-54
2022/08/24 05:45:56;;;;;;;43.10;38.53;;;16.60;99.90;;;;;;5063046;28;20135;-55
2022/08/24 05:48:22;;;;;;;47.28;41.15;;;16.60;99.90;;;;;;5065916;28;21078;-55
2022/08/24 05:50:56;;;;;;;48.63;43.40;;;16.80;99.90;;;;;;5066435;28;20083;-55
2022/08/24 05:53:22;;;;;;;48.47;43.35;;;17.10;99.90;;;;;;5066813;28;20047;-56
2022/08/24 05:55:47;;;;;;;50.72;45.50;;;17.20;99.90;;;;;;5067828;28;20048;-55
2022/08/24 05:58:13;;;;;;;50.45;45.35;;;17.30;99.90;;;;;;5067920;28;20512;-53
2022/08/24 06:00:39;;;;;;;48.35;43.50;;;17.60;99.90;;;;;;5065169;28;20173;-51
2022/08/24 06:03:05;;;;;;;51.17;46.15;;;17.90;99.90;;;;;;5066669;28;20031;-54
2022/08/24 06:05:31;;;;;;;44.65;40.05;;;18.10;99.90;;;;;;5068318;28;20051;-55
2022/08/24 06:07:57;;;;;;;43.53;39.08;;;18.30;99.90;;;;;;5065733;28;20078;-55
2022/08/24 06:10:23;;;;;;;42.33;37.88;;;18.70;99.90;;;;;;5070753;28;20547;-54
2022/08/24 06:12:48;;;;;;;40.38;36.67;;;19.10;99.90;;;;;;5063507;28;20044;-54
2022/08/24 06:15:14;;;;;;;39.72;35.53;;;19.30;99.90;;;;;;5064653;28;20041;-55
2022/08/24 06:17:40;;;;;;;38.72;32.80;;;20.20;99.90;;;;;;5066864;28;20043;-55
2022/08/24 06:20:06;;;;;;;35.60;31.90;;;20.40;99.90;;;;;;5050348;28;20082;-55
2022/08/24 06:22:32;;;;;;;34.30;31.10;;;20.60;99.90;;;;;;5068416;28;20077;-55
2022/08/24 06:27:44;;;;;;;33.92;30.35;;;24.20;99.90;;;;;;5064344;28;20400;-55
2022/08/24 06:30:10;;;;;;;29.13;26.10;;;22.70;99.90;;;;;;5062541;28;20119;-55
2022/08/24 06:32:38;;;;;;;29.15;26.15;;;23.50;99.90;;;;;;5064305;28;20761;-55
2022/08/24 06:35:04;;;;;;;28.92;26.13;;;23.90;99.90;;;;;;5066839;28;20173;-55
2022/08/24 06:37:30;;;;;;;26.08;23.58;;;24.00;99.90;;;;;;5065864;28;20512;-55
2022/08/24 06:39:56;;;;;;;26.27;23.77;;;23.90;99.90;;;;;;5067935;28;20040;-53
2022/08/24 06:42:28;;;;;;;26.73;24.02;;;24.20;99.90;;;;;;5065106;28;20043;-55
2022/08/24 06:44:54;;;;;;;26.13;23.33;;;24.20;99.90;;;;;;5049097;28;20077;-55
2022/08/24 06:47:20;;;;;;;25.35;22.75;;;24.80;99.90;;;;;;5065636;28;20128;-55
2022/08/24 06:49:46;;;;;;;26.60;23.35;;;25.30;99.90;;;;;;5064764;28;20606;-56
2022/08/24 06:52:12;;;;;;;23.85;21.50;;;26.20;99.90;;;;;;5048665;28;20245;-56
2022/08/24 06:54:38;;;;;;;25.25;21.17;;;27.00;99.90;;;;;;5066869;28;20089;-56
2022/08/24 06:57:05;;;;;;;22.00;19.90;;;27.90;99.90;;;;;;5070037;28;20040;-56
2022/08/24 06:59:32;;;;;;;23.15;20.95;;;28.50;99.90;;;;;;5066186;28;20052;-56
2022/08/24 07:01:58;;;;;;;21.95;19.17;;;29.10;99.90;;;;;;5067772;28;20104;-57
2022/08/24 07:04:26;;;;;;;21.58;18.17;;;29.50;99.90;;;;;;5063218;28;20416;-57
2022/08/24 07:06:53;;;;;;;20.58;18.38;;;29.90;99.90;;;;;;5063964;28;20048;-56
2022/08/24 07:09:23;;;;;;;21.05;18.15;;;30.00;99.90;;;;;;5062301;28;20048;-57
2022/08/24 07:11:49;;;;;;;19.38;17.02;;;30.40;99.90;;;;;;5067342;28;20463;-57
2022/08/24 07:14:15;;;;;;;17.02;15.40;;;31.00;99.90;;;;;;5064556;28;20040;-57
2022/08/24 07:16:42;;;;;;;20.67;15.80;;;31.20;99.90;;;;;;5064521;28;20571;-57
2022/08/24 07:19:08;;;;;;;21.35;13.02;;;31.30;99.90;;;;;;5063491;28;20516;-59
2022/08/24 07:21:34;;;;;;;16.48;12.85;;;31.50;99.90;;;;;;5065649;28;20055;-58
2022/08/24 07:24:01;;;;;;;17.15;12.07;;;31.40;99.90;;;;;;5042083;28;20055;-58
2022/08/24 07:26:30;;;;;;;14.95;11.15;;;31.40;99.90;;;;;;5062604;28;20041;-57
2022/08/24 07:29:05;;;;;;;16.05;11.77;;;31.00;99.90;;;;;;5062001;28;20048;-58
2022/08/24 07:31:32;;;;;;;15.00;11.98;;;31.10;99.90;;;;;;5063081;28;20040;-58
2022/08/24 07:33:58;;;;;;;13.50;11.35;;;30.80;99.90;;;;;;5045210;28;20116;-58
2022/08/24 07:36:24;;;;;;;18.13;11.23;;;30.10;99.90;;;;;;5063280;28;20047;-59
2022/08/24 07:38:53;;;;;;;16.10;12.38;;;29.30;99.90;;;;;;5066598;28;20119;-58
2022/08/24 07:41:21;;;;;;;17.80;12.32;;;28.60;99.90;;;;;;5059384;28;20515;-58
2022/08/24 07:43:48;;;;;;;13.25;11.95;;;28.40;99.90;;;;;;5064064;28;20192;-58
2022/08/24 07:46:13;;;;;;;17.52;12.02;;;28.00;99.90;;;;;;5061416;28;20401;-58
2022/08/24 07:48:39;;;;;;;20.42;12.93;;;27.80;99.90;;;;;;5065467;28;20051;-58
2022/08/24 07:51:11;;;;;;;16.48;13.18;;;27.90;99.90;;;;;;5066151;28;20047;-58
2022/08/24 07:53:37;;;;;;;15.18;11.85;;;27.70;99.90;;;;;;5067308;28;20045;-58
2022/08/24 07:56:03;;;;;;;16.70;12.07;;;27.40;99.90;;;;;;5041708;28;20071;-58
2022/08/24 07:58:28;;;;;;;13.48;11.13;;;27.20;99.90;;;;;;5043754;28;20032;-58
2022/08/24 08:00:54;;;;;;;15.48;12.13;;;26.90;99.90;;;;;;5066905;28;20043;-58
2022/08/24 08:03:22;;;;;;;17.85;11.73;;;27.00;99.90;;;;;;5062057;28;20127;-58
2022/08/24 08:05:48;;;;;;;16.55;12.75;;;26.70;99.90;;;;;;5062671;28;20048;-58
2022/08/24 08:08:14;;;;;;;12.38;9.68;;;27.10;99.90;;;;;;5061245;28;20515;-58
2022/08/24 08:10:39;;;;;;;14.35;10.48;;;26.70;99.90;;;;;;5065088;28;20607;-57
2022/08/24 08:13:06;;;;;;;14.40;10.25;;;26.60;99.90;;;;;;5065033;28;20060;-58
2022/08/24 08:15:32;;;;;;;12.95;8.73;;;26.40;99.90;;;;;;5068001;28;20123;-58
2022/08/24 08:17:58;;;;;;;14.55;9.35;;;26.30;99.90;;;;;;5057348;28;20040;-58
2022/08/24 08:20:24;;;;;;;13.48;9.15;;;26.20;99.90;;;;;;5064927;28;20036;-58
2022/08/24 08:25:37;;;;;;;11.18;7.78;;;25.70;99.90;;;;;;5059716;28;20132;-57
2022/08/24 08:28:04;;;;;;;13.23;9.13;;;26.00;99.90;;;;;;5070503;28;20044;-58
2022/08/24 08:30:31;;;;;;;10.63;8.65;;;25.60;99.90;;;;;;5068602;28;20224;-57
2022/08/24 08:32:56;;;;;;;10.75;7.28;;;25.60;99.90;;;;;;5067417;28;20064;-57
2022/08/24 08:35:22;;;;;;;12.98;7.70;;;25.70;99.90;;;;;;5066865;28;20503;-58
2022/08/24 08:37:48;;;;;;;14.13;7.07;;;25.80;99.90;;;;;;5072718;28;20987;-57
2022/08/24 08:40:54;;;;;;;11.00;7.47;;;25.60;99.90;;;;;;5064834;28;20489;-57
2022/08/24 08:43:39;;;;;;;10.98;7.53;;;25.60;99.90;;;;;;5061587;28;20427;-58
2022/08/24 08:46:34;;;;;;;11.40;7.47;;;25.50;99.90;;;;;;5065792;28;20048;-58
2022/08/24 08:49:17;;;;;;;13.98;7.40;;;25.40;99.90;;;;;;5063835;28;20679;-57
2022/08/24 08:52:23;;;;;;;7.95;6.50;;;25.30;99.90;;;;;;5065414;28;20040;-58
2022/08/24 08:54:55;;;;;;;16.10;8.35;;;25.30;99.90;;;;;;5068756;28;20059;-58
2022/08/24 08:57:42;;;;;;;11.88;8.13;;;25.40;99.90;;;;;;5064841;28;20044;-57
2022/08/24 09:00:21;;;;;;;11.13;8.10;;;25.40;99.90;;;;;;5066227;28;20047;-58
2022/08/24 09:03:03;;;;;;;13.52;7.90;;;25.40;99.90;;;;;;5065719;28;20083;-56
2022/08/24 09:05:44;;;;;;;10.73;7.53;;;25.30;99.90;;;;;;5070706;28;20518;-57
2022/08/24 09:08:52;;;;;;;12.70;7.57;;;25.10;99.90;;;;;;5071114;28;20054;-57
2022/08/24 09:11:53;;;;;;;13.70;6.80;;;25.40;99.90;;;;;;5066436;28;20039;-57
2022/08/24 09:14:44;;;;;;;16.47;7.23;;;25.70;99.90;;;;;;5068544;28;20044;-57
2022/08/24 09:17:22;;;;;;;13.95;7.07;;;25.70;99.90;;;;;;5061542;28;20036;-58
2022/08/24 09:20:16;;;;;;;11.07;6.38;;;25.60;99.90;;;;;;5068519;28;20104;-58
2022/08/24 09:22:46;;;;;;;10.48;6.18;;;25.80;99.90;;;;;;5068424;28;20502;-58
2022/08/24 09:25:25;;;;;;;8.57;5.80;;;25.70;99.90;;;;;;5039691;28;20048;-58
2022/08/24 09:28:09;;;;;;;8.45;6.05;;;25.70;99.90;;;;;;5067533;28;20476;-58
2022/08/24 09:31:06;;;;;;;9.32;6.07;;;25.70;99.90;;;;;;5064779;28;20123;-57
2022/08/24 09:33:51;;;;;;;9.68;5.78;;;25.80;99.90;;;;;;5065244;28;20060;-57
2022/08/24 09:36:37;;;;;;;10.50;4.60;;;26.00;99.90;;;;;;5059418;28;20052;-57
2022/08/24 09:39:35;;;;;;;12.10;5.55;;;26.20;99.90;;;;;;5066226;28;20408;-58
2022/08/24 09:42:20;;;;;;;9.93;5.40;;;26.60;99.90;;;;;;5065553;28;20040;-58
2022/08/24 09:45:04;;;;;;;12.32;4.95;;;26.60;99.90;;;;;;5068353;28;20048;-58
2022/08/24 09:47:54;;;;;;;9.35;4.00;;;26.70;99.90;;;;;;5062356;28;20036;-58
2022/08/24 09:50:47;;;;;;;8.02;4.20;;;26.90;99.90;;;;;;5060448;28;20080;-58
2022/08/24 09:53:40;;;;;;;6.95;3.70;;;26.90;99.90;;;;;;5070283;28;20044;-58
2022/08/24 09:56:12;;;;;;;7.32;3.47;;;27.10;99.90;;;;;;5069850;28;20460;-58
2022/08/24 09:58:37;;;;;;;;;;;27.20;99.90;;;;;;5068258;28;20036;-59
2022/08/24 10:01:12;;;;;;;8.77;3.65;;;27.40;99.90;;;;;;5066212;28;19924;-58
2022/08/24 10:04:01;;;;;;;8.82;2.78;;;27.60;99.90;;;;;;5062268;28;20443;-58
2022/08/24 10:06:33;;;;;;;6.15;2.83;;;27.70;99.90;;;;;;5066117;28;20208;-58
2022/08/24 10:09:32;;;;;;;5.65;2.88;;;27.80;99.90;;;;;;5064896;28;20121;-58
2022/08/24 10:12:23;;;;;;;6.47;2.45;;;28.30;99.90;;;;;;5062495;28;20127;-58
2022/08/24 10:15:08;;;;;;;7.60;2.38;;;28.10;99.90;;;;;;5047494;28;20070;-58
2022/08/24 10:17:58;;;;;;;5.53;2.70;;;28.30;99.90;;;;;;5063549;28;20309;-58
2022/08/24 10:20:42;;;;;;;7.25;2.60;;;28.60;99.90;;;;;;5068520;28;20048;-58
2022/08/24 10:23:32;;;;;;;7.53;2.72;;;28.40;99.90;;;;;;5068780;28;20084;-58
2022/08/24 10:26:22;;;;;;;5.43;1.60;;;28.80;99.90;;;;;;5063161;28;20134;-58
2022/08/24 10:29:06;;;;;;;4.18;1.58;;;29.20;99.90;;;;;;5060833;28;20845;-58
2022/08/24 10:31:35;;;;;;;6.30;1.65;;;29.10;99.90;;;;;;5063491;28;20040;-57
2022/08/24 10:34:07;;;;;;;6.10;2.30;;;29.30;99.90;;;;;;5060917;28;20127;-57
2022/08/24 10:36:47;;;;;;;5.18;2.50;;;29.40;99.90;;;;;;5062635;28;20535;-58
2022/08/24 10:42:06;;;;;;;3.40;1.85;;;29.70;99.90;;;;;;5068411;28;20415;-58
2022/08/24 10:45:17;;;;;;;3.58;1.60;;;29.80;99.90;;;;;;5059676;28;20504;-57
2022/08/24 10:48:21;;;;;;;4.90;1.80;;;29.70;99.90;;;;;;5037255;28;20873;-58
2022/08/24 10:51:06;;;;;;;4.68;1.70;;;30.10;99.90;;;;;;4970316;28;20052;-58
2022/08/24 10:53:32;;;;;;;5.13;1.73;;;30.30;99.90;;;;;;5068122;28;20051;-58
2022/08/24 10:56:04;;;;;;;3.95;1.52;;;30.40;99.90;;;;;;5058640;28;20065;-58
2022/08/24 10:58:46;;;;;;;2.55;1.10;;;30.40;99.90;;;;;;5060307;28;20037;-57
2022/08/24 11:01:27;;;;;;;6.55;1.42;;;30.40;99.90;;;;;;5062680;28;20408;-58
2022/08/24 11:04:27;;;;;;;4.60;1.50;;;30.40;99.90;;;;;;5063217;28;20050;-57
2022/08/24 11:07:15;;;;;;;3.42;1.48;;;30.60;99.90;;;;;;5046412;28;20064;-58
2022/08/24 11:09:55;;;;;;;2.90;1.33;;;30.60;99.90;;;;;;5061187;28;20047;-58
2022/08/24 11:12:34;;;;;;;4.75;1.30;;;30.80;99.90;;;;;;5062159;28;20036;-58
2022/08/24 11:15:23;;;;;;;2.53;1.30;;;30.80;99.90;;;;;;5062546;28;20075;-58
2022/08/24 11:18:03;;;;;;;3.80;1.50;;;30.50;99.90;;;;;;5062251;28;20048;-58
2022/08/24 11:20:35;;;;;;;5.63;1.58;;;30.20;99.90;;;;;;5060394;28;20033;-57
2022/08/24 11:23:16;;;;;;;7.47;2.65;;;30.10;99.90;;;;;;5062036;28;20079;-58
2022/08/24 11:26:06;;;;;;;8.65;3.10;;;29.60;99.90;;;;;;5060411;28;20075;-58
2022/08/24 11:28:39;;;;;;;6.90;2.00;;;29.10;99.90;;;;;;5061778;28;20048;-58
2022/08/24 11:31:11;;;;;;;4.90;1.73;;;29.00;99.90;;;;;;5062642;28;20044;-59
2022/08/24 11:33:46;;;;;;;3.55;1.40;;;29.10;99.90;;;;;;5060295;28;20036;-59
2022/08/24 11:36:24;;;;;;;5.60;1.50;;;29.00;99.90;;;;;;5062536;28;20040;-58
2022/08/24 11:39:11;;;;;;;5.22;1.60;;;28.80;99.90;;;;;;5063597;28;20503;-59
2022/08/24 11:42:01;;;;;;;11.65;2.33;;;28.60;99.90;;;;;;5056295;28;20466;-58
2022/08/24 11:44:48;;;;;;;7.30;1.58;;;28.50;99.90;;;;;;5064191;28;20056;-58
2022/08/24 11:47:33;;;;;;;5.00;1.77;;;28.80;99.90;;;;;;5060193;28;20052;-57
2022/08/24 11:50:19;;;;;;;4.53;1.30;;;28.30;99.90;;;;;;5062838;28;20478;-57
2022/08/24 11:53:07;;;;;;;5.40;1.70;;;28.40;99.90;;;;;;5060468;28;20328;-58
2022/08/24 11:55:48;;;;;;;5.00;1.40;;;30.60;99.90;;;;;;5058181;28;20036;-58
2022/08/24 11:58:34;;;;;;;4.40;1.60;;;28.20;99.90;;;;;;5057830;28;20450;-58
2022/08/24 12:01:34;;;;;;;4.68;1.35;;;28.00;99.90;;;;;;5020911;28;20310;-57
2022/08/24 12:04:15;;;;;;;5.32;1.63;;;28.10;99.90;;;;;;5057505;28;20048;-58
2022/08/24 12:06:52;;;;;;;7.50;1.45;;;28.20;99.90;;;;;;5057465;28;20459;-57
2022/08/24 12:09:30;;;;;;;2.88;1.30;;;28.10;99.90;;;;;;5063712;28;20048;-58
2022/08/24 12:12:20;;;;;;;3.67;1.50;;;27.80;99.90;;;;;;5059782;28;20459;-58
2022/08/24 12:15:08;;;;;;;5.13;1.33;;;28.00;99.90;;;;;;5052310;28;20047;-59
2022/08/24 12:18:03;;;;;;;3.75;1.80;;;27.80;99.90;;;;;;5059341;28;20283;-58
2022/08/24 12:20:37;;;;;;;3.25;1.50;;;27.80;99.90;;;;;;5057993;28;20051;-57
2022/08/24 12:23:10;;;;;;;3.25;1.23;;;27.70;99.90;;;;;;5038726;28;20033;-58
2022/08/24 12:28:49;;;;;;;4.47;1.23;;;28.40;99.90;;;;;;5058460;28;20056;-59
2022/08/24 12:31:30;;;;;;;2.72;1.23;;;28.60;99.90;;;;;;5056827;28;20052;-57
2022/08/24 12:34:00;;;;;;;12.80;3.35;;;28.60;99.90;;;;;;5043399;28;20044;-57
2022/08/24 12:36:45;;;;;;;1.45;1.00;;;28.80;99.90;;;;;;5063868;28;20098;-57
2022/08/24 12:39:18;;;;;;;7.18;1.20;;;28.90;99.90;;;;;;5060455;28;20068;-58
2022/08/24 12:42:00;;;;;;;8.15;2.00;;;29.60;99.90;;;;;;5034802;28;20041;-57
2022/08/24 12:44:39;;;;;;;6.20;1.25;;;30.00;99.90;;;;;;5059530;28;21978;-57
2022/08/24 12:47:05;;;;;;;3.55;1.10;;;30.10;99.90;;;;;;5062743;28;20117;-58
2022/08/24 12:49:47;;;;;;;3.17;1.15;;;30.50;99.90;;;;;;5060624;28;20040;-58
2022/08/24 12:52:40;;;;;;;4.35;1.10;;;30.10;99.90;;;;;;5056562;28;20070;-58
2022/08/24 12:55:15;;;;;;;3.95;1.08;;;32.60;99.90;;;;;;5060453;28;21125;-57
2022/08/24 12:58:06;;;;;;;2.83;0.93;;;30.20;99.90;;;;;;5059009;28;20130;-58
2022/08/24 13:00:39;;;;;;;;;;;30.30;99.90;;;;;;5061075;28;20127;-58
2022/08/24 13:03:22;;;;;;;4.30;0.93;;;29.60;99.90;;;;;;5063364;28;19936;-58
2022/08/24 13:05:57;;;;;;;2.92;0.90;;;29.40;99.90;;;;;;5060559;28;20064;-58
2022/08/24 13:08:42;;;;;;;3.97;1.00;;;29.40;99.90;;;;;;5059517;28;20044;-58
2022/08/24 13:11:11;;;;;;;2.25;0.80;;;29.00;99.90;;;;;;5063072;28;20044;-57
2022/08/24 13:13:45;;;;;;;2.60;1.00;;;29.00;99.90;;;;;;5067446;28;20041;-57